createdAt,value
2023-05-08T00:06:29.796Z,-67
2023-05-08T00:14:02.226Z,-67
2023-05-08T00:21:34.640Z,-67
2023-05-08T00:29:07.132Z,-68
2023-05-08T00:36:39.574Z,-67
2023-05-08T00:44:11.987Z,-67
2023-05-08T00:51:44.408Z,-67
2023-05-08T00:59:16.915Z,-67
2023-05-08T01:06:49.361Z,-68
2023-05-08T01:14:21.790Z,-67
2023-05-08T01:21:54.233Z,-68
2023-05-08T01:29:26.640Z,-67
2023-05-08T01:36:59.043Z,-68
2023-05-08T01:44:31.464Z,-67
2023-05-08T01:52:03.901Z,-68
2023-05-08T01:59:36.370Z,-67
2023-05-08T02:07:08.798Z,-67
2023-05-08T02:14:41.223Z,-68
2023-05-08T02:22:13.644Z,-67
2023-05-08T02:29:46.047Z,-68
2023-05-08T02:37:18.471Z,-67
2023-05-08T02:44:50.919Z,-67
2023-05-08T02:52:23.341Z,-67
2023-05-08T02:59:55.748Z,-67
2023-05-08T03:07:28.167Z,-67
2023-05-08T03:15:00.586Z,-68
2023-05-08T03:22:32.999Z,-66
2023-05-08T03:30:05.461Z,-67
2023-05-08T03:37:37.894Z,-67
2023-05-08T03:45:10.320Z,-67
2023-05-08T03:52:42.739Z,-67
2023-05-08T04:00:15.292Z,-66
2023-05-08T04:07:47.768Z,-67
2023-05-08T04:15:20.201Z,-67
2023-05-08T04:22:52.598Z,-67
2023-05-08T04:30:25.045Z,-67
2023-05-08T04:37:57.476Z,-67
2023-05-08T04:45:29.917Z,-67
2023-05-08T04:53:02.346Z,-66
2023-05-08T05:00:34.788Z,-68
2023-05-08T05:08:07.217Z,-69
2023-05-08T05:15:39.666Z,-69
2023-05-08T05:23:12.120Z,-69
2023-05-08T05:30:44.539Z,-68
2023-05-08T05:38:16.953Z,-69
2023-05-08T05:45:31.219Z,-71
2023-05-08T05:46:20.677Z,-70
2023-05-08T05:47:08.220Z,-71
2023-05-08T05:47:55.754Z,-70
2023-05-08T05:48:43.193Z,-69
2023-05-08T05:49:30.619Z,-69
2023-05-08T05:50:18.058Z,-68
2023-05-08T05:51:05.512Z,-66
2023-05-08T05:51:52.939Z,-70
2023-05-08T05:52:40.365Z,-66
2023-05-08T05:53:27.817Z,-67
2023-05-08T05:54:15.250Z,-71
2023-05-08T05:55:02.693Z,-71
2023-05-08T05:55:50.088Z,-70
2023-05-08T05:56:37.666Z,-69
2023-05-08T05:57:25.119Z,-64
2023-05-08T05:58:12.520Z,-63
2023-05-08T05:59:00.526Z,-64
2023-05-08T05:59:48.122Z,-61
2023-05-08T06:00:36.073Z,-61
2023-05-08T06:01:23.554Z,-67
2023-05-08T06:02:11.941Z,-68
2023-05-08T06:03:00.108Z,-65
2023-05-08T06:03:48.001Z,-62
2023-05-08T06:04:35.510Z,-65
2023-05-08T06:05:22.970Z,-62
2023-05-08T06:06:10.397Z,-60
2023-05-08T06:06:57.826Z,-63
2023-05-08T06:07:45.247Z,-64
2023-05-08T06:08:32.666Z,-65
2023-05-08T06:09:20.095Z,-65
2023-05-08T06:10:07.511Z,-65
2023-05-08T06:10:54.927Z,-62
2023-05-08T06:11:42.414Z,-68
2023-05-08T06:12:29.902Z,-63
2023-05-08T06:13:17.380Z,-66
2023-05-08T06:14:04.821Z,-63
2023-05-08T06:14:52.258Z,-64
2023-05-08T06:15:39.669Z,-64
2023-05-08T06:16:27.155Z,-64
2023-05-08T06:17:14.678Z,-64
2023-05-08T06:18:02.177Z,-66
2023-05-08T06:18:49.657Z,-65
2023-05-08T06:19:37.085Z,-67
2023-05-08T06:20:26.235Z,-66
2023-05-08T06:21:13.925Z,-65
2023-05-08T06:22:01.377Z,-65
2023-05-08T06:22:48.790Z,-65
2023-05-08T06:23:36.195Z,-64
2023-05-08T06:24:23.722Z,-64
2023-05-08T06:25:11.456Z,-67
2023-05-08T06:25:59.211Z,-63
2023-05-08T06:26:46.630Z,-67
2023-05-08T06:27:34.033Z,-64
2023-05-08T06:28:21.462Z,-63
2023-05-08T06:29:08.875Z,-63
2023-05-08T06:29:56.302Z,-65
2023-05-08T06:30:43.860Z,-62
2023-05-08T06:31:31.418Z,-65
2023-05-08T06:32:19.155Z,-66
2023-05-08T06:33:06.706Z,-64
2023-05-08T06:33:54.511Z,-65
2023-05-08T06:34:41.929Z,-71
2023-05-08T06:35:29.425Z,-62
2023-05-08T06:36:16.855Z,-65
2023-05-08T06:37:04.280Z,-67
2023-05-08T06:37:51.692Z,-67
2023-05-08T06:38:39.132Z,-67
2023-05-08T06:39:26.627Z,-63
2023-05-08T06:40:14.038Z,-65
2023-05-08T06:41:01.469Z,-67
2023-05-08T06:41:48.881Z,-72
2023-05-08T06:42:36.305Z,-69
2023-05-08T06:43:23.776Z,-71
2023-05-08T06:44:11.184Z,-71
2023-05-08T06:44:58.623Z,-67
2023-05-08T06:45:46.066Z,-71
2023-05-08T06:46:33.692Z,-68
2023-05-08T06:47:21.432Z,-70
2023-05-08T06:48:08.955Z,-68
2023-05-08T06:48:56.418Z,-69
2023-05-08T06:49:43.929Z,-73
2023-05-08T06:50:31.405Z,-70
2023-05-08T06:51:18.862Z,-70
2023-05-08T06:52:06.308Z,-70
2023-05-08T06:52:53.733Z,-66
2023-05-08T06:53:41.133Z,-66
2023-05-08T06:54:28.565Z,-70
2023-05-08T06:55:15.986Z,-69
2023-05-08T06:56:03.455Z,-70
2023-05-08T06:56:50.904Z,-68
2023-05-08T06:57:38.401Z,-70
2023-05-08T06:58:26.063Z,-73
2023-05-08T06:59:13.504Z,-71
2023-05-08T07:00:01.199Z,-70
2023-05-08T07:00:48.643Z,-70
2023-05-08T07:01:36.116Z,-69
2023-05-08T07:02:23.571Z,-69
2023-05-08T07:03:11.024Z,-71
2023-05-08T07:03:58.513Z,-67
2023-05-08T07:04:46.131Z,-70
2023-05-08T07:05:33.800Z,-65
2023-05-08T07:06:21.254Z,-66
2023-05-08T07:07:08.663Z,-67
2023-05-08T07:07:56.059Z,-65
2023-05-08T07:08:43.537Z,-66
2023-05-08T07:09:30.991Z,-67
2023-05-08T07:10:18.610Z,-67
2023-05-08T07:11:06.301Z,-66
2023-05-08T07:11:53.735Z,-63
2023-05-08T07:12:41.288Z,-72
2023-05-08T07:13:28.973Z,-64
2023-05-08T07:14:16.527Z,-66
2023-05-08T07:15:13.779Z,-66
2023-05-08T07:16:01.345Z,-65
2023-05-08T07:16:48.798Z,-65
2023-05-08T07:17:36.230Z,-66
2023-05-08T07:18:23.660Z,-66
2023-05-08T07:19:11.297Z,-64
2023-05-08T07:19:58.789Z,-65
2023-05-08T07:20:46.230Z,-67
2023-05-08T07:21:33.669Z,-65
2023-05-08T07:22:21.165Z,-69
2023-05-08T07:23:08.677Z,-63
2023-05-08T07:23:56.117Z,-62
2023-05-08T07:24:43.566Z,-63
2023-05-08T07:25:30.982Z,-62
2023-05-08T07:26:18.424Z,-62
2023-05-08T07:27:05.851Z,-62
2023-05-08T07:27:53.350Z,-62
2023-05-08T07:28:40.760Z,-63
2023-05-08T07:29:28.184Z,-62
2023-05-08T07:30:15.617Z,-62
2023-05-08T07:31:03.074Z,-62
2023-05-08T07:31:50.563Z,-61
2023-05-08T07:32:38.214Z,-63
2023-05-08T07:33:25.636Z,-65
2023-05-08T07:34:13.065Z,-62
2023-05-08T07:35:00.511Z,-63
2023-05-08T07:35:47.959Z,-63
2023-05-08T07:36:35.394Z,-64
2023-05-08T07:37:22.787Z,-66
2023-05-08T07:38:10.197Z,-68
2023-05-08T07:38:57.602Z,-64
2023-05-08T07:39:45.046Z,-65
2023-05-08T07:40:32.549Z,-65
2023-05-08T07:41:20.005Z,-69
2023-05-08T07:42:07.739Z,-73
2023-05-08T07:42:55.145Z,-64
2023-05-08T07:43:42.778Z,-64
2023-05-08T07:44:31.735Z,-68
2023-05-08T07:45:24.655Z,-65
2023-05-08T07:46:12.087Z,-67
2023-05-08T07:46:59.566Z,-66
2023-05-08T07:47:47.059Z,-65
2023-05-08T07:48:34.528Z,-65
2023-05-08T07:49:21.939Z,-66
2023-05-08T07:50:09.393Z,-65
2023-05-08T07:50:56.851Z,-65
2023-05-08T07:51:44.306Z,-62
2023-05-08T07:52:31.730Z,-63
2023-05-08T07:53:19.154Z,-65
2023-05-08T07:54:06.640Z,-67
2023-05-08T07:54:54.101Z,-71
2023-05-08T07:55:41.535Z,-71
2023-05-08T07:56:29.002Z,-70
2023-05-08T07:57:16.452Z,-68
2023-05-08T07:58:03.845Z,-71
2023-05-08T07:58:51.259Z,-69
2023-05-08T07:59:38.702Z,-68
2023-05-08T08:00:26.115Z,-69
2023-05-08T08:01:13.555Z,-66
2023-05-08T08:02:00.994Z,-63
2023-05-08T08:02:48.686Z,-65
2023-05-08T08:03:36.469Z,-67
2023-05-08T08:04:24.065Z,-69
2023-05-08T08:05:11.737Z,-68
2023-05-08T08:05:59.478Z,-69
2023-05-08T08:06:46.931Z,-65
2023-05-08T08:07:34.578Z,-67
2023-05-08T08:08:22.012Z,-65
2023-05-08T08:09:09.420Z,-68
2023-05-08T08:09:56.854Z,-68
2023-05-08T08:10:44.274Z,-69
2023-05-08T08:11:31.830Z,-67
2023-05-08T08:12:19.277Z,-71
2023-05-08T08:13:06.784Z,-70
2023-05-08T08:13:54.220Z,-70
2023-05-08T08:14:41.628Z,-69
2023-05-08T08:15:29.078Z,-64
2023-05-08T08:16:16.509Z,-67
2023-05-08T08:17:04.085Z,-70
2023-05-08T08:17:51.586Z,-70
2023-05-08T08:18:39.018Z,-67
2023-05-08T08:19:26.416Z,-66
2023-05-08T08:20:13.841Z,-68
2023-05-08T08:21:01.272Z,-70
2023-05-08T08:21:48.686Z,-65
2023-05-08T08:22:36.098Z,-67
2023-05-08T08:23:23.522Z,-70
2023-05-08T08:24:10.949Z,-67
2023-05-08T08:24:58.597Z,-69
2023-05-08T08:25:46.019Z,-68
2023-05-08T08:26:33.500Z,-67
2023-05-08T08:27:20.936Z,-69
2023-05-08T08:28:08.399Z,-66
2023-05-08T08:28:55.796Z,-65
2023-05-08T08:29:43.228Z,-67
2023-05-08T08:30:30.642Z,-66
2023-05-08T08:31:18.125Z,-67
2023-05-08T08:32:05.584Z,-67
2023-05-08T08:32:53.183Z,-65
2023-05-08T08:33:40.608Z,-69
2023-05-08T08:34:28.150Z,-68
2023-05-08T08:35:15.763Z,-68
2023-05-08T08:36:04.032Z,-67
2023-05-08T08:36:51.433Z,-60
2023-05-08T08:37:38.901Z,-65
2023-05-08T08:38:26.308Z,-68
2023-05-08T08:39:15.318Z,-66
2023-05-08T08:40:02.908Z,-71
2023-05-08T08:40:50.367Z,-66
2023-05-08T08:41:37.776Z,-72
2023-05-08T08:42:25.210Z,-68
2023-05-08T08:43:12.632Z,-66
2023-05-08T08:44:00.065Z,-67
2023-05-08T08:44:47.542Z,-71
2023-05-08T08:45:34.949Z,-73
2023-05-08T08:46:22.416Z,-70
2023-05-08T08:47:09.886Z,-68
2023-05-08T08:47:57.450Z,-69
2023-05-08T08:48:45.354Z,-70
2023-05-08T08:49:32.786Z,-68
2023-05-08T08:50:20.227Z,-68
2023-05-08T08:51:07.641Z,-69
2023-05-08T08:51:55.055Z,-68
2023-05-08T08:52:42.488Z,-67
2023-05-08T08:53:29.942Z,-67
2023-05-08T08:54:17.427Z,-69
2023-05-08T08:55:04.842Z,-69
2023-05-08T08:55:52.254Z,-69
2023-05-08T08:56:39.661Z,-67
2023-05-08T08:57:27.088Z,-68
2023-05-08T08:58:15.204Z,-68
2023-05-08T08:59:02.617Z,-68
2023-05-08T08:59:50.029Z,-69
2023-05-08T09:00:37.452Z,-67
2023-05-08T09:01:24.946Z,-69
2023-05-08T09:02:12.466Z,-67
2023-05-08T09:03:00.077Z,-68
2023-05-08T09:03:49.193Z,-70
2023-05-08T09:04:37.388Z,-70
2023-05-08T09:05:24.798Z,-69
2023-05-08T09:06:12.198Z,-69
2023-05-08T09:06:59.646Z,-68
2023-05-08T09:07:47.067Z,-67
2023-05-08T09:08:34.523Z,-70
2023-05-08T09:09:21.952Z,-67
2023-05-08T09:10:09.407Z,-64
2023-05-08T09:10:56.835Z,-68
2023-05-08T09:11:44.255Z,-70
2023-05-08T09:12:31.696Z,-65
2023-05-08T09:13:19.882Z,-71
2023-05-08T09:14:07.503Z,-68
2023-05-08T09:14:54.934Z,-62
2023-05-08T09:15:42.351Z,-67
2023-05-08T09:16:29.816Z,-69
2023-05-08T09:17:17.284Z,-68
2023-05-08T09:18:04.977Z,-69
2023-05-08T09:18:52.417Z,-68
2023-05-08T09:19:39.863Z,-69
2023-05-08T09:20:27.377Z,-69
2023-05-08T09:21:14.791Z,-65
2023-05-08T09:22:02.275Z,-66
2023-05-08T09:22:49.711Z,-60
2023-05-08T09:23:37.135Z,-62
2023-05-08T09:24:24.580Z,-63
2023-05-08T09:25:12.291Z,-64
2023-05-08T09:25:59.912Z,-65
2023-05-08T09:26:47.348Z,-65
2023-05-08T09:27:34.766Z,-66
2023-05-08T09:28:22.201Z,-62
2023-05-08T09:29:09.657Z,-67
2023-05-08T09:29:57.102Z,-68
2023-05-08T09:30:44.514Z,-66
2023-05-08T09:31:32.772Z,-66
2023-05-08T09:32:20.304Z,-68
2023-05-08T09:33:08.047Z,-68
2023-05-08T09:33:55.566Z,-67
2023-05-08T09:34:42.975Z,-67
2023-05-08T09:35:30.432Z,-68
2023-05-08T09:36:17.883Z,-66
2023-05-08T09:37:05.307Z,-65
2023-05-08T09:37:52.731Z,-70
2023-05-08T09:38:40.258Z,-67
2023-05-08T09:39:27.741Z,-68
2023-05-08T09:40:15.362Z,-66
2023-05-08T09:41:03.081Z,-67
2023-05-08T09:41:50.500Z,-66
2023-05-08T09:42:37.962Z,-65
2023-05-08T09:43:25.374Z,-64
2023-05-08T09:44:12.771Z,-65
2023-05-08T09:45:00.229Z,-65
2023-05-08T09:45:47.691Z,-64
2023-05-08T09:46:35.142Z,-64
2023-05-08T09:47:22.713Z,-65
2023-05-08T09:48:10.302Z,-67
2023-05-08T09:48:57.900Z,-66
2023-05-08T09:49:45.328Z,-64
2023-05-08T09:50:32.730Z,-65
2023-05-08T09:51:20.132Z,-64
2023-05-08T09:52:07.597Z,-65
2023-05-08T09:52:55.070Z,-64
2023-05-08T09:53:42.567Z,-63
2023-05-08T09:54:30.001Z,-65
2023-05-08T09:55:17.430Z,-63
2023-05-08T09:56:04.837Z,-64
2023-05-08T09:56:52.259Z,-66
2023-05-08T09:57:39.757Z,-64
2023-05-08T09:58:27.264Z,-64
2023-05-08T09:59:14.664Z,-64
2023-05-08T10:00:02.069Z,-65
2023-05-08T10:00:49.553Z,-64
2023-05-08T10:01:37.048Z,-63
2023-05-08T10:02:24.559Z,-64
2023-05-08T10:03:12.087Z,-63
2023-05-08T10:03:59.982Z,-62
2023-05-08T10:04:47.542Z,-64
2023-05-08T10:05:35.140Z,-64
2023-05-08T10:06:22.655Z,-66
2023-05-08T10:07:10.341Z,-65
2023-05-08T10:07:57.755Z,-67
2023-05-08T10:08:45.219Z,-68
2023-05-08T10:09:46.805Z,-66
2023-05-08T10:10:30.008Z,-65
2023-05-08T10:11:17.448Z,-64
2023-05-08T10:12:04.941Z,-63
2023-05-08T10:12:52.425Z,-68
2023-05-08T10:13:39.895Z,-69
2023-05-08T10:14:27.322Z,-64
2023-05-08T10:15:14.726Z,-66
2023-05-08T10:16:02.178Z,-69
2023-05-08T10:16:49.813Z,-66
2023-05-08T10:17:37.325Z,-65
2023-05-08T10:18:24.800Z,-68
2023-05-08T10:19:12.213Z,-63
2023-05-08T10:19:59.617Z,-64
2023-05-08T10:20:47.048Z,-62
2023-05-08T10:21:34.548Z,-65
2023-05-08T10:22:21.992Z,-63
2023-05-08T10:23:09.410Z,-63
2023-05-08T10:23:56.830Z,-63
2023-05-08T10:24:44.281Z,-63
2023-05-08T10:25:31.690Z,-65
2023-05-08T10:26:19.098Z,-66
2023-05-08T10:27:07.765Z,-65
2023-05-08T10:27:55.480Z,-62
2023-05-08T10:28:42.898Z,-66
2023-05-08T10:29:30.319Z,-66
2023-05-08T10:30:17.798Z,-62
2023-05-08T10:31:05.275Z,-63
2023-05-08T10:31:52.755Z,-65
2023-05-08T10:32:40.221Z,-63
2023-05-08T10:33:28.956Z,-63
2023-05-08T10:34:18.398Z,-64
2023-05-08T10:35:06.073Z,-66
2023-05-08T10:35:53.713Z,-65
2023-05-08T10:36:41.139Z,-67
2023-05-08T10:37:28.580Z,-63
2023-05-08T10:38:16.073Z,-64
2023-05-08T10:39:03.507Z,-64
2023-05-08T10:39:51.023Z,-66
2023-05-08T10:40:38.487Z,-64
2023-05-08T10:41:25.915Z,-64
2023-05-08T10:42:13.384Z,-64
2023-05-08T10:43:00.808Z,-64
2023-05-08T10:43:48.230Z,-64
2023-05-08T10:44:35.671Z,-63
2023-05-08T10:45:23.094Z,-63
2023-05-08T10:46:10.571Z,-64
2023-05-08T10:46:58.260Z,-63
2023-05-08T10:47:46.153Z,-63
2023-05-08T10:48:33.608Z,-63
2023-05-08T10:49:21.030Z,-63
2023-05-08T10:50:08.465Z,-65
2023-05-08T10:50:55.881Z,-64
2023-05-08T10:51:43.287Z,-65
2023-05-08T10:52:30.736Z,-63
2023-05-08T10:53:18.171Z,-62
2023-05-08T10:54:05.591Z,-64
2023-05-08T10:54:53.019Z,-62
2023-05-08T10:55:40.438Z,-64
2023-05-08T10:56:28.048Z,-63
2023-05-08T10:57:15.496Z,-64
2023-05-08T10:58:02.953Z,-63
2023-05-08T10:58:50.391Z,-62
2023-05-08T10:59:37.811Z,-62
2023-05-08T11:00:25.256Z,-61
2023-05-08T11:01:12.759Z,-59
2023-05-08T11:02:00.341Z,-65
2023-05-08T11:02:47.874Z,-63
2023-05-08T11:03:35.672Z,-62
2023-05-08T11:04:23.363Z,-63
2023-05-08T11:05:10.946Z,-61
2023-05-08T11:05:58.362Z,-60
2023-05-08T11:06:45.887Z,-62
2023-05-08T11:07:33.356Z,-63
2023-05-08T11:08:20.803Z,-61
2023-05-08T11:09:08.208Z,-64
2023-05-08T11:09:55.615Z,-64
2023-05-08T11:17:28.032Z,-64
2023-05-08T11:24:10.687Z,-63
2023-05-08T11:31:43.218Z,-64
2023-05-08T11:39:15.693Z,-64
2023-05-08T11:46:48.176Z,-63
2023-05-08T11:54:20.655Z,-63
2023-05-08T12:09:28.355Z,-64
2023-05-08T12:17:00.775Z,-64
2023-05-08T12:24:33.227Z,-64
2023-05-08T12:32:05.664Z,-63
2023-05-08T12:39:38.086Z,-64
2023-05-08T12:47:10.508Z,-63
2023-05-08T12:54:42.932Z,-64
2023-05-08T13:02:15.499Z,-63
2023-05-08T13:09:47.986Z,-63
2023-05-08T13:17:20.427Z,-63
2023-05-08T13:24:52.873Z,-63
2023-05-08T13:32:25.341Z,-63
2023-05-08T13:39:57.775Z,-63
2023-05-08T13:47:30.208Z,-64
2023-05-08T13:55:02.650Z,-64
2023-05-08T14:02:35.158Z,-64
2023-05-08T14:10:07.622Z,-65
2023-05-08T14:17:40.060Z,-63
2023-05-08T14:25:12.844Z,-64
2023-05-08T14:32:45.476Z,-65
2023-05-08T14:40:17.908Z,-69
2023-05-08T14:47:50.354Z,-71
2023-05-08T14:55:23.058Z,-71
2023-05-08T15:02:55.663Z,-72
2023-05-08T15:10:28.142Z,-71
2023-05-08T15:18:00.603Z,-70
2023-05-08T15:25:33.096Z,-71
2023-05-08T15:33:05.535Z,-69
2023-05-08T15:40:38.005Z,-68
2023-05-08T15:48:10.480Z,-67
2023-05-08T15:55:42.969Z,-70
2023-05-08T16:03:15.526Z,-68
2023-05-08T16:10:47.937Z,-71
2023-05-08T16:18:20.331Z,-69
2023-05-08T16:25:52.722Z,-69
2023-05-08T16:33:25.126Z,-66
2023-05-08T16:40:57.495Z,-69
2023-05-08T16:48:29.889Z,-69
2023-05-08T16:56:02.313Z,-68
2023-05-08T17:03:34.831Z,-68
2023-05-08T17:11:07.265Z,-67
2023-05-08T17:18:39.656Z,-67
2023-05-08T17:26:12.038Z,-67
2023-05-08T17:33:44.464Z,-66
2023-05-08T17:41:16.894Z,-66
2023-05-08T17:48:49.277Z,-67
2023-05-08T17:56:21.687Z,-66
2023-05-08T18:03:54.025Z,-66
2023-05-08T18:11:26.514Z,-64
2023-05-08T18:18:58.940Z,-64
2023-05-08T18:26:31.362Z,-65
2023-05-08T18:34:03.794Z,-65
2023-05-08T18:41:36.246Z,-65
2023-05-08T18:49:08.667Z,-66
2023-05-08T18:56:41.105Z,-65
2023-05-08T19:04:13.740Z,-65
2023-05-08T19:11:46.303Z,-65
2023-05-08T19:19:18.713Z,-64
2023-05-08T19:26:51.130Z,-64
2023-05-08T19:34:23.651Z,-64
2023-05-08T19:41:56.132Z,-64
2023-05-08T19:49:28.587Z,-64
2023-05-08T19:57:01.023Z,-64
2023-05-08T20:04:39.994Z,-64
2023-05-08T20:12:15.805Z,-64
2023-05-08T20:19:48.276Z,-64
2023-05-08T20:27:20.778Z,-64
2023-05-08T20:34:53.216Z,-64
2023-05-08T20:42:25.658Z,-65
2023-05-08T20:49:58.117Z,-65
2023-05-08T20:57:30.541Z,-65
2023-05-08T21:05:03.033Z,-65
2023-05-08T21:12:35.554Z,-66
2023-05-08T21:20:07.974Z,-66
2023-05-08T21:27:40.409Z,-67
2023-05-08T21:35:13.113Z,-67
2023-05-08T21:42:45.838Z,-67
2023-05-08T21:50:18.323Z,-66
2023-05-08T21:57:50.734Z,-66
2023-05-08T22:05:23.191Z,-66
2023-05-08T22:12:55.655Z,-67
2023-05-08T22:20:28.101Z,-66
2023-05-08T22:28:00.564Z,-66
2023-05-08T22:35:32.961Z,-65
2023-05-08T22:43:05.437Z,-65
2023-05-08T22:50:37.874Z,-67
2023-05-08T22:58:10.309Z,-65
2023-05-08T23:05:42.703Z,-65
2023-05-08T23:13:15.238Z,-65
2023-05-08T23:20:47.684Z,-65
2023-05-08T23:28:20.156Z,-65
2023-05-08T23:35:52.563Z,-65
2023-05-08T23:43:25.028Z,-65
2023-05-08T23:50:57.529Z,-66
2023-05-08T23:58:30.001Z,-66
